Time;durP1;ratioP1;P1;durP2;ratioP2;P2;SDS_P1;SDS_P2;PMS_P1;PMS_P2;Temp;Humidity;BMP_temperature;BMP_pressure;BME280_temperature;BME280_humidity;BME280_pressure;Samples;Min_cycle;Max_cycle;Signal;HPM_P1;HPM_P2
2023/01/26 00:00:46;;;;;;;25.00;9.50;;;;;;;;;;7394904;19;20009;-79
2023/01/26 00:03:11;;;;;;;24.63;9.60;;;;;;;;;;7395878;19;19994;-78
2023/01/26 00:05:37;;;;;;;27.02;9.30;;;;;;;;;;7394977;19;20010;-79
2023/01/26 00:08:02;;;;;;;27.55;10.32;;;;;;;;;;7390939;19;20003;-79
2023/01/26 00:10:28;;;;;;;22.33;9.57;;;;;;;;;;7391477;19;19998;-77
2023/01/26 00:12:53;;;;;;;25.23;10.27;;;;;;;;;;7390784;19;19999;-78
2023/01/26 00:15:18;;;;;;;26.20;10.65;;;;;;;;;;7391697;19;20003;-79
2023/01/26 00:17:44;;;;;;;28.15;12.23;;;;;;;;;;7391534;19;20080;-79
2023/01/26 00:20:09;;;;;;;27.60;11.07;;;;;;;;;;7391546;19;19998;-78
2023/01/26 00:22:35;;;;;;;27.05;9.75;;;;;;;;;;7391490;19;20010;-78
2023/01/26 00:25:00;;;;;;;29.15;10.40;;;;;;;;;;7391037;19;20011;-78
2023/01/26 00:27:26;;;;;;;28.33;10.68;;;;;;;;;;7394516;19;19998;-79
2023/01/26 00:29:51;;;;;;;30.27;11.20;;;;;;;;;;7389251;19;20002;-79
2023/01/26 00:32:16;;;;;;;24.23;10.32;;;;;;;;;;7389518;19;20010;-79
2023/01/26 00:34:42;;;;;;;26.05;10.77;;;;;;;;;;7390119;19;20017;-78
2023/01/26 00:37:07;;;;;;;30.65;10.90;;;;;;;;;;7394556;19;20009;-78
2023/01/26 00:39:32;;;;;;;26.17;10.90;;;;;;;;;;7394954;19;20015;-78
2023/01/26 00:42:10;;;;;;;27.45;10.40;;;;;;;;;;7395830;19;20078;-79
2023/01/26 00:44:37;;;;;;;28.15;10.45;;;;;;;;;;7397214;19;19999;-78
2023/01/26 00:47:04;;;;;;;25.23;11.20;;;;;;;;;;7397326;19;20007;-78
2023/01/26 00:49:29;;;;;;;23.17;9.57;;;;;;;;;;7399256;19;20003;-79
2023/01/26 00:51:54;;;;;;;28.80;11.13;;;;;;;;;;7397027;19;19998;-78
2023/01/26 00:54:20;;;;;;;27.58;9.65;;;;;;;;;;7398125;19;20002;-78
2023/01/26 00:56:45;;;;;;;27.58;9.07;;;;;;;;;;7397069;19;19995;-78
2023/01/26 00:59:10;;;;;;;30.10;10.95;;;;;;;;;;7394444;19;20003;-78
2023/01/26 01:01:36;;;;;;;26.00;10.23;;;;;;;;;;7393830;19;19999;-78
2023/01/26 01:04:01;;;;;;;27.00;10.68;;;;;;;;;;7395167;19;20033;-79
2023/01/26 01:06:26;;;;;;;23.73;9.18;;;;;;;;;;7396766;19;20464;-78
2023/01/26 01:08:52;;;;;;;25.00;10.40;;;;;;;;;;7394571;19;19991;-78
2023/01/26 01:11:17;;;;;;;28.27;11.25;;;;;;;;;;7396595;19;20024;-78
2023/01/26 01:13:43;;;;;;;27.77;10.15;;;;;;;;;;7396375;19;20002;-78
2023/01/26 01:16:11;;;;;;;29.95;11.30;;;;;;;;;;7395154;19;20586;-79
2023/01/26 01:18:36;;;;;;;21.15;9.40;;;;;;;;;;7395061;19;20002;-79
2023/01/26 01:21:10;;;;;;;24.25;8.85;;;;;;;;;;7396237;19;19995;-78
2023/01/26 01:23:36;;;;;;;22.48;9.80;;;;;;;;;;7395885;19;19999;-77
2023/01/26 01:26:03;;;;;;;20.20;8.57;;;;;;;;;;7396631;19;20053;-79
2023/01/26 01:28:28;;;;;;;20.17;8.77;;;;;;;;;;7393540;19;20372;-78
2023/01/26 01:30:53;;;;;;;19.65;8.05;;;;;;;;;;7396002;19;20002;-79
2023/01/26 01:33:19;;;;;;;18.80;8.05;;;;;;;;;;7395451;19;19995;-79
2023/01/26 01:35:57;;;;;;;19.40;8.48;;;;;;;;;;7396185;19;19999;-79
2023/01/26 01:38:23;;;;;;;16.48;7.32;;;;;;;;;;7392687;19;20429;-79
2023/01/26 01:40:48;;;;;;;14.38;6.55;;;;;;;;;;7395313;19;20115;-78
2023/01/26 01:43:13;;;;;;;18.40;7.03;;;;;;;;;;7395370;19;19998;-80
2023/01/26 01:45:47;;;;;;;18.00;7.18;;;;;;;;;;7394328;19;20010;-78
2023/01/26 01:48:34;;;;;;;17.25;7.28;;;;;;;;;;7392082;19;20035;-78
2023/01/26 01:51:04;;;;;;;20.98;7.80;;;;;;;;;;7395473;19;20472;-80
2023/01/26 01:53:34;;;;;;;18.07;6.53;;;;;;;;;;7395013;19;20468;-80
2023/01/26 01:56:04;;;;;;;9.33;4.97;;;;;;;;;;7395061;19;20003;-79
2023/01/26 01:58:32;;;;;;;11.95;5.45;;;;;;;;;;7394702;19;20743;-79
2023/01/26 02:00:58;;;;;;;15.32;6.63;;;;;;;;;;7394645;19;20010;-80
2023/01/26 02:03:25;;;;;;;9.88;5.20;;;;;;;;;;7394294;19;20003;-77
2023/01/26 02:06:11;;;;;;;11.68;5.43;;;;;;;;;;7395066;19;19994;-79
2023/01/26 02:09:04;;;;;;;9.73;5.10;;;;;;;;;;7393611;19;20354;-78
2023/01/26 02:11:44;;;;;;;15.90;5.40;;;;;;;;;;7394580;19;20002;-77
2023/01/26 02:14:13;;;;;;;9.40;4.75;;;;;;;;;;7393814;19;20020;-79
2023/01/26 02:16:38;;;;;;;11.88;5.00;;;;;;;;;;7394341;19;20467;-79
2023/01/26 02:19:16;;;;;;;9.43;4.80;;;;;;;;;;7395235;19;20076;-78
2023/01/26 02:21:43;;;;;;;9.40;4.20;;;;;;;;;;7392126;19;20494;-79
2023/01/26 02:24:15;;;;;;;10.07;5.30;;;;;;;;;;7392223;19;20471;-79
2023/01/26 02:26:40;;;;;;;8.52;4.20;;;;;;;;;;7392768;19;20017;-77
2023/01/26 02:29:09;;;;;;;8.80;4.07;;;;;;;;;;7392144;19;20456;-80
2023/01/26 02:31:35;;;;;;;9.60;4.35;;;;;;;;;;7394312;19;20018;-79
2023/01/26 02:34:01;;;;;;;10.30;4.30;;;;;;;;;;7393561;19;20066;-79
2023/01/26 02:36:29;;;;;;;8.35;4.20;;;;;;;;;;7398012;19;20011;-79
2023/01/26 02:39:22;;;;;;;9.80;3.90;;;;;;;;;;7392216;19;19998;-78
2023/01/26 02:44:33;;;;;;;6.80;3.15;;;;;;;;;;7393379;19;20009;-78
2023/01/26 02:46:59;;;;;;;9.10;3.85;;;;;;;;;;7393267;19;20002;-79
2023/01/26 02:52:08;;;;;;;9.57;4.18;;;;;;;;;;7393415;19;20019;-78
2023/01/26 02:57:18;;;;;;;8.00;3.05;;;;;;;;;;7393731;19;20010;-77
2023/01/26 02:59:43;;;;;;;7.65;3.05;;;;;;;;;;7393610;19;19991;-79
2023/01/26 03:02:09;;;;;;;7.45;3.58;;;;;;;;;;7394692;19;19999;-79
2023/01/26 03:04:34;;;;;;;6.82;2.97;;;;;;;;;;7393494;19;20488;-79
2023/01/26 03:06:59;;;;;;;7.95;3.17;;;;;;;;;;7393772;19;20018;-79
2023/01/26 03:09:25;;;;;;;7.30;3.28;;;;;;;;;;7392684;19;19999;-78
2023/01/26 03:11:50;;;;;;;7.25;2.97;;;;;;;;;;7395945;19;19995;-78
2023/01/26 03:14:16;;;;;;;7.70;3.35;;;;;;;;;;7402489;19;19995;-78
2023/01/26 03:16:41;;;;;;;8.07;3.30;;;;;;;;;;7401298;19;20006;-79
2023/01/26 03:27:26;;;;;;;6.70;3.45;;;;;;;;;;7392958;19;20027;-79
2023/01/26 03:29:52;;;;;;;7.32;3.58;;;;;;;;;;7391680;19;20375;-79
2023/01/26 03:32:17;;;;;;;9.13;3.88;;;;;;;;;;7392447;19;20081;-79
2023/01/26 03:34:43;;;;;;;10.25;3.67;;;;;;;;;;7391638;19;20024;-80
2023/01/26 03:37:09;;;;;;;7.93;3.72;;;;;;;;;;7391901;19;20001;-80
2023/01/26 03:56:20;;;;;;;6.72;3.35;;;;;;;;;;7391618;19;20037;-79
2023/01/26 03:58:54;;;;;;;6.38;3.20;;;;;;;;;;7389939;19;19998;-78
2023/01/26 04:01:26;;;;;;;8.40;3.13;;;;;;;;;;7390576;19;20003;-79
2023/01/26 04:09:24;;;;;;;6.72;2.80;;;;;;;;;;7389809;19;20024;-78
2023/01/26 04:11:50;;;;;;;5.82;3.10;;;;;;;;;;7402686;19;19998;-79
2023/01/26 04:22:28;;;;;;;6.53;2.65;;;;;;;;;;7405420;19;19998;-78
2023/01/26 04:24:54;;;;;;;4.93;2.50;;;;;;;;;;7402137;19;20010;-79
2023/01/26 04:27:19;;;;;;;7.30;3.13;;;;;;;;;;7403419;19;20065;-78
2023/01/26 04:29:44;;;;;;;5.97;2.85;;;;;;;;;;7404863;19;20011;-78
2023/01/26 04:32:10;;;;;;;8.02;3.22;;;;;;;;;;7408808;19;20029;-78
2023/01/26 04:34:35;;;;;;;4.85;2.25;;;;;;;;;;7406619;19;20353;-79
2023/01/26 04:37:00;;;;;;;8.82;3.45;;;;;;;;;;7404510;19;19994;-79
2023/01/26 04:39:26;;;;;;;9.98;3.33;;;;;;;;;;7402149;19;20350;-78
2023/01/26 04:41:51;;;;;;;5.18;2.70;;;;;;;;;;7403479;19;20007;-78
2023/01/26 04:44:16;;;;;;;7.85;3.35;;;;;;;;;;7403786;19;20013;-78
2023/01/26 04:46:42;;;;;;;9.20;3.58;;;;;;;;;;7404385;19;20496;-78
2023/01/26 04:49:07;;;;;;;12.10;3.88;;;;;;;;;;7402576;19;20006;-78
2023/01/26 04:51:34;;;;;;;10.02;3.90;;;;;;;;;;7405053;19;19986;-77
2023/01/26 04:53:59;;;;;;;7.05;3.10;;;;;;;;;;7403322;19;19995;-78
2023/01/26 04:56:30;;;;;;;8.45;3.38;;;;;;;;;;7402952;19;20066;-76
2023/01/26 04:58:57;;;;;;;6.72;3.00;;;;;;;;;;7400669;19;19999;-79
2023/01/26 05:01:23;;;;;;;7.63;2.58;;;;;;;;;;7403236;19;19999;-79
2023/01/26 05:03:48;;;;;;;6.85;3.00;;;;;;;;;;7401428;19;20005;-79
2023/01/26 05:06:14;;;;;;;9.05;3.47;;;;;;;;;;7401834;19;20004;-77
2023/01/26 05:08:39;;;;;;;12.07;3.50;;;;;;;;;;7406459;19;20003;-77
2023/01/26 05:11:05;;;;;;;7.68;3.05;;;;;;;;;;7403581;19;19998;-78
2023/01/26 05:13:30;;;;;;;7.50;3.60;;;;;;;;;;7403735;19;20076;-80
2023/01/26 05:15:56;;;;;;;7.13;3.20;;;;;;;;;;7404563;19;19990;-78
2023/01/26 05:18:21;;;;;;;10.52;3.38;;;;;;;;;;7403196;19;20385;-79
2023/01/26 05:20:46;;;;;;;11.95;2.92;;;;;;;;;;7405151;19;20741;-79
2023/01/26 05:23:12;;;;;;;5.78;3.35;;;;;;;;;;7399742;19;20394;-79
2023/01/26 05:25:37;;;;;;;6.50;3.20;;;;;;;;;;7397252;19;20083;-78
2023/01/26 05:28:03;;;;;;;10.18;3.92;;;;;;;;;;7395825;19;20505;-78
2023/01/26 05:30:29;;;;;;;8.45;4.43;;;;;;;;;;7396962;19;20575;-76
2023/01/26 05:33:00;;;;;;;8.88;4.43;;;;;;;;;;7398482;19;20357;-78
2023/01/26 05:35:26;;;;;;;9.60;4.70;;;;;;;;;;7396470;19;20077;-78
2023/01/26 05:37:51;;;;;;;11.63;4.55;;;;;;;;;;7396895;19;19987;-79
2023/01/26 05:40:16;;;;;;;11.88;4.97;;;;;;;;;;7397346;19;19991;-78
2023/01/26 05:42:42;;;;;;;12.52;4.95;;;;;;;;;;7396075;19;20095;-77
2023/01/26 05:45:09;;;;;;;9.73;4.70;;;;;;;;;;7399020;19;19991;-77
2023/01/26 05:47:34;;;;;;;11.65;5.35;;;;;;;;;;7395506;19;19995;-78
2023/01/26 05:49:59;;;;;;;12.48;5.20;;;;;;;;;;7395338;19;19991;-79
2023/01/26 05:52:25;;;;;;;9.98;4.70;;;;;;;;;;7393292;19;19997;-77
2023/01/26 05:54:50;;;;;;;8.57;3.90;;;;;;;;;;7395561;19;19998;-78
2023/01/26 05:57:16;;;;;;;8.07;4.32;;;;;;;;;;7394984;19;20438;-78
2023/01/26 05:59:41;;;;;;;9.05;4.38;;;;;;;;;;7398422;19;20037;-77
2023/01/26 06:02:10;;;;;;;9.68;4.35;;;;;;;;;;7388749;19;19998;-77
2023/01/26 06:04:35;;;;;;;8.63;4.43;;;;;;;;;;7392510;19;20008;-77
2023/01/26 06:07:00;;;;;;;9.23;4.53;;;;;;;;;;7391339;19;19987;-79
2023/01/26 06:09:26;;;;;;;12.65;4.25;;;;;;;;;;7391458;19;20056;-80
2023/01/26 06:11:51;;;;;;;12.85;5.30;;;;;;;;;;7390945;19;20019;-78
2023/01/26 06:14:16;;;;;;;14.40;4.75;;;;;;;;;;7393464;19;20042;-78
2023/01/26 06:16:42;;;;;;;10.52;4.68;;;;;;;;;;7394520;19;20105;-80
2023/01/26 06:19:10;;;;;;;8.60;4.65;;;;;;;;;;7392154;19;20003;-80
2023/01/26 06:21:36;;;;;;;9.60;4.63;;;;;;;;;;7384099;19;20009;-80
2023/01/26 06:24:01;;;;;;;11.77;5.50;;;;;;;;;;7391560;19;20009;-79
2023/01/26 06:26:27;;;;;;;11.30;5.47;;;;;;;;;;7394305;19;20024;-79
2023/01/26 06:28:53;;;;;;;11.82;5.03;;;;;;;;;;7393298;19;20305;-79
2023/01/26 06:31:19;;;;;;;14.30;5.50;;;;;;;;;;7393895;19;19987;-79
2023/01/26 06:33:45;;;;;;;12.65;5.05;;;;;;;;;;7391485;19;20339;-78
2023/01/26 06:36:13;;;;;;;14.27;5.15;;;;;;;;;;7390708;19;19998;-80
2023/01/26 06:38:45;;;;;;;25.58;7.13;;;;;;;;;;7388260;19;19998;-79
2023/01/26 06:41:10;;;;;;;36.08;7.72;;;;;;;;;;7388016;19;20006;-80
2023/01/26 06:43:36;;;;;;;27.88;7.38;;;;;;;;;;7391763;19;20002;-80
2023/01/26 06:46:03;;;;;;;32.92;6.60;;;;;;;;;;7389543;19;20003;-79
2023/01/26 06:48:32;;;;;;;18.92;6.40;;;;;;;;;;7390095;19;19999;-80
2023/01/26 06:51:18;;;;;;;14.38;5.15;;;;;;;;;;7393566;19;20058;-77
2023/01/26 06:53:57;;;;;;;11.52;5.25;;;;;;;;;;7391874;19;20359;-81
2023/01/26 06:56:23;;;;;;;11.82;6.10;;;;;;;;;;7390103;19;19994;-79
2023/01/26 06:58:49;;;;;;;14.45;6.10;;;;;;;;;;7391317;19;20006;-79
2023/01/26 07:01:20;;;;;;;11.40;5.35;;;;;;;;;;7365622;19;20006;-79
2023/01/26 07:03:50;;;;;;;7.10;2.67;;;;;;;;;;7389171;19;19999;-79
2023/01/26 07:06:15;;;;;;;13.93;5.45;;;;;;;;;;7391622;19;19998;-82
2023/01/26 07:08:41;;;;;;;10.48;5.75;;;;;;;;;;7388389;19;20009;-78
2023/01/26 07:11:08;;;;;;;11.55;5.45;;;;;;;;;;7389047;19;20003;-77
2023/01/26 07:13:34;;;;;;;11.95;5.90;;;;;;;;;;7390369;19;19994;-79
2023/01/26 07:16:04;;;;;;;13.32;5.28;;;;;;;;;;7392192;19;19998;-78
2023/01/26 07:18:30;;;;;;;13.52;6.07;;;;;;;;;;7389244;19;19994;-79
2023/01/26 07:21:06;;;;;;;12.98;5.35;;;;;;;;;;7387598;19;20271;-78
2023/01/26 07:23:32;;;;;;;13.85;6.10;;;;;;;;;;7387639;19;20035;-78
2023/01/26 07:25:58;;;;;;;9.30;4.13;;;;;;;;;;7389276;19;20003;-78
2023/01/26 07:28:24;;;;;;;10.90;5.05;;;;;;;;;;7385550;19;20006;-79
2023/01/26 07:30:50;;;;;;;15.27;6.10;;;;;;;;;;7388005;19;20002;-79
2023/01/26 07:33:15;;;;;;;11.07;5.30;;;;;;;;;;7385590;19;20013;-78
2023/01/26 07:35:41;;;;;;;9.80;4.47;;;;;;;;;;7387737;19;20005;-77
2023/01/26 07:38:09;;;;;;;11.25;4.72;;;;;;;;;;7389736;19;20018;-78
2023/01/26 07:40:34;;;;;;;12.20;5.88;;;;;;;;;;7387073;19;20457;-79
2023/01/26 07:42:59;;;;;;;13.15;6.13;;;;;;;;;;7390206;19;20006;-80
2023/01/26 07:45:26;;;;;;;11.57;5.45;;;;;;;;;;7388730;19;19998;-79
2023/01/26 07:47:55;;;;;;;12.50;6.05;;;;;;;;;;7390828;19;20011;-77
2023/01/26 07:50:20;;;;;;;12.13;5.93;;;;;;;;;;7390944;19;19999;-79
2023/01/26 07:52:47;;;;;;;12.65;5.57;;;;;;;;;;7390426;19;20490;-79
2023/01/26 07:55:13;;;;;;;16.67;5.95;;;;;;;;;;7389003;19;20005;-78
2023/01/26 07:57:39;;;;;;;13.38;6.07;;;;;;;;;;7397881;19;20002;-79
2023/01/26 08:00:04;;;;;;;14.20;5.63;;;;;;;;;;7389694;19;20002;-75
2023/01/26 08:02:30;;;;;;;12.65;5.82;;;;;;;;;;7386418;19;20066;-75
2023/01/26 08:04:55;;;;;;;11.23;6.03;;;;;;;;;;7390144;19;20528;-77
2023/01/26 08:07:20;;;;;;;14.63;6.07;;;;;;;;;;7388283;19;20009;-77
2023/01/26 08:09:46;;;;;;;12.48;6.07;;;;;;;;;;7389096;19;20428;-76
2023/01/26 08:12:11;;;;;;;9.75;4.95;;;;;;;;;;7389985;19;20486;-76
2023/01/26 08:14:36;;;;;;;14.93;6.20;;;;;;;;;;7389272;19;20004;-77
2023/01/26 08:17:02;;;;;;;16.52;6.95;;;;;;;;;;7392146;19;20532;-77
2023/01/26 08:19:27;;;;;;;26.20;7.30;;;;;;;;;;7386133;19;19991;-77
2023/01/26 08:21:53;;;;;;;13.52;6.40;;;;;;;;;;7388085;19;20324;-77
2023/01/26 08:24:19;;;;;;;11.18;5.15;;;;;;;;;;7385357;19;19998;-77
2023/01/26 08:26:44;;;;;;;11.98;5.43;;;;;;;;;;7386590;19;20370;-77
2023/01/26 08:29:09;;;;;;;14.40;6.18;;;;;;;;;;7385878;19;20007;-78
2023/01/26 08:31:36;;;;;;;13.75;6.63;;;;;;;;;;7388582;19;20383;-78
2023/01/26 08:34:01;;;;;;;12.65;5.78;;;;;;;;;;7385820;19;20016;-77
2023/01/26 08:36:27;;;;;;;12.23;6.00;;;;;;;;;;7390303;19;20017;-78
2023/01/26 08:38:53;;;;;;;12.65;5.97;;;;;;;;;;7389754;19;19999;-78
2023/01/26 08:41:18;;;;;;;19.02;7.65;;;;;;;;;;7388155;19;20016;-77
2023/01/26 08:43:44;;;;;;;13.68;6.03;;;;;;;;;;7388131;19;20008;-78
2023/01/26 08:46:09;;;;;;;13.77;7.18;;;;;;;;;;7390259;19;20021;-76
2023/01/26 08:48:35;;;;;;;12.93;5.20;;;;;;;;;;7388160;19;20500;-78
2023/01/26 08:51:02;;;;;;;10.32;4.85;;;;;;;;;;7390757;19;19998;-77
2023/01/26 08:53:30;;;;;;;16.20;6.10;;;;;;;;;;7389744;19;20401;-77
2023/01/26 08:55:55;;;;;;;13.50;5.72;;;;;;;;;;7391114;19;19994;-77
2023/01/26 08:58:20;;;;;;;15.73;7.57;;;;;;;;;;7393112;19;20053;-77
2023/01/26 09:00:46;;;;;;;15.35;6.10;;;;;;;;;;7397994;19;20042;-77
2023/01/26 09:03:11;;;;;;;10.68;5.35;;;;;;;;;;7390293;19;20002;-77
2023/01/26 09:05:38;;;;;;;14.93;6.55;;;;;;;;;;7396705;19;20009;-77
2023/01/26 09:08:05;;;;;;;15.70;6.70;;;;;;;;;;7393911;19;20011;-76
2023/01/26 09:10:31;;;;;;;17.05;6.72;;;;;;;;;;7396468;19;20113;-77
2023/01/26 09:12:57;;;;;;;15.80;6.30;;;;;;;;;;7396540;19;19998;-77
2023/01/26 09:15:22;;;;;;;14.95;6.32;;;;;;;;;;7398257;19;19995;-77
2023/01/26 09:17:48;;;;;;;18.10;7.03;;;;;;;;;;7405256;19;20003;-76
2023/01/26 09:20:14;;;;;;;17.15;7.35;;;;;;;;;;7404552;19;20058;-76
2023/01/26 09:22:41;;;;;;;19.02;6.40;;;;;;;;;;7404050;19;20319;-78
2023/01/26 09:25:07;;;;;;;21.35;8.65;;;;;;;;;;7400679;19;20485;-79
2023/01/26 09:27:32;;;;;;;19.95;8.40;;;;;;;;;;7394219;19;19999;-76
2023/01/26 09:29:58;;;;;;;15.27;6.80;;;;;;;;;;7397219;19;20016;-78
2023/01/26 09:32:24;;;;;;;16.20;7.38;;;;;;;;;;7396680;19;20444;-78
2023/01/26 09:34:49;;;;;;;17.90;6.82;;;;;;;;;;7396491;19;20019;-77
2023/01/26 09:37:14;;;;;;;20.02;8.55;;;;;;;;;;7394110;19;20403;-78
2023/01/26 09:39:40;;;;;;;15.82;7.50;;;;;;;;;;7394047;19;20476;-77
2023/01/26 09:42:23;;;;;;;12.20;5.00;;;;;;;;;;7393346;19;20509;-76
2023/01/26 09:45:10;;;;;;;18.98;7.55;;;;;;;;;;7394299;19;20002;-76
2023/01/26 09:47:45;;;;;;;15.45;6.57;;;;;;;;;;7392740;19;20019;-77
2023/01/26 09:50:18;;;;;;;16.92;7.13;;;;;;;;;;7395743;19;19999;-77
2023/01/26 09:52:46;;;;;;;19.38;8.57;;;;;;;;;;7394082;19;20351;-75
2023/01/26 09:55:16;;;;;;;13.30;6.07;;;;;;;;;;7391846;19;20019;-77
2023/01/26 09:58:04;;;;;;;11.82;6.05;;;;;;;;;;7391254;19;20003;-76
2023/01/26 10:00:42;;;;;;;13.05;5.55;;;;;;;;;;7393574;19;20019;-77
2023/01/26 10:03:30;;;;;;;11.68;5.30;;;;;;;;;;7392602;19;20023;-77
2023/01/26 10:06:25;;;;;;;19.20;8.38;;;;;;;;;;7391391;19;20002;-78
2023/01/26 10:08:52;;;;;;;19.88;7.40;;;;;;;;;;7389848;19;19998;-76
2023/01/26 10:11:24;;;;;;;16.00;6.65;;;;;;;;;;7393849;19;19995;-76
2023/01/26 10:13:55;;;;;;;21.50;7.38;;;;;;;;;;7392263;19;20037;-76
2023/01/26 10:16:23;;;;;;;14.43;6.38;;;;;;;;;;7393535;19;20114;-76
2023/01/26 10:19:01;;;;;;;14.95;6.70;;;;;;;;;;7392576;19;20010;-77
2023/01/26 10:21:32;;;;;;;16.33;7.18;;;;;;;;;;7391272;19;19998;-76
2023/01/26 10:24:00;;;;;;;17.70;7.53;;;;;;;;;;7393679;19;20406;-76
2023/01/26 10:26:29;;;;;;;17.42;7.32;;;;;;;;;;7393757;19;20002;-76
2023/01/26 10:28:55;;;;;;;23.88;8.45;;;;;;;;;;7386671;19;20356;-78
2023/01/26 10:31:27;;;;;;;16.05;6.97;;;;;;;;;;7393712;19;19994;-75
2023/01/26 10:34:05;;;;;;;16.45;6.90;;;;;;;;;;7392132;19;19995;-75
2023/01/26 10:36:31;;;;;;;16.98;7.40;;;;;;;;;;7393708;19;19998;-77
2023/01/26 10:39:07;;;;;;;15.50;7.50;;;;;;;;;;7392024;19;20074;-77
2023/01/26 10:41:33;;;;;;;13.30;5.32;;;;;;;;;;7391135;19;20435;-76
2023/01/26 10:44:19;;;;;;;15.18;6.93;;;;;;;;;;7390240;19;19998;-76
2023/01/26 10:46:44;;;;;;;21.80;6.35;;;;;;;;;;7393456;19;20351;-77
2023/01/26 10:49:18;;;;;;;14.43;6.03;;;;;;;;;;7392864;19;20003;-76
2023/01/26 10:52:03;;;;;;;16.90;7.05;;;;;;;;;;7391464;19;20022;-77
2023/01/26 10:54:32;;;;;;;14.73;5.57;;;;;;;;;;7390988;19;20334;-76
2023/01/26 10:57:01;;;;;;;16.30;6.82;;;;;;;;;;7393728;19;20092;-76
2023/01/26 10:59:52;;;;;;;10.50;4.28;;;;;;;;;;7388501;19;19998;-77
2023/01/26 11:02:23;;;;;;;9.98;4.28;;;;;;;;;;7388133;19;20096;-76
2023/01/26 11:05:07;;;;;;;19.98;5.93;;;;;;;;;;7391830;19;20002;-77
2023/01/26 11:07:38;;;;;;;13.55;4.25;;;;;;;;;;7389535;19;20034;-76
2023/01/26 11:10:18;;;;;;;14.00;6.57;;;;;;;;;;7390555;19;20066;-76
2023/01/26 11:12:44;;;;;;;15.98;7.03;;;;;;;;;;7390922;19;20007;-77
2023/01/26 11:15:39;;;;;;;18.90;7.18;;;;;;;;;;7389043;19;20008;-77
2023/01/26 11:18:31;;;;;;;16.83;6.75;;;;;;;;;;7386079;19;20041;-79
2023/01/26 11:21:02;;;;;;;12.98;6.25;;;;;;;;;;7383179;19;20014;-77
2023/01/26 11:23:45;;;;;;;;;;;;;;;;;;7385268;19;20010;-76
2023/01/26 11:26:25;;;;;;;13.75;5.50;;;;;;;;;;7387264;19;20437;-77
2023/01/26 11:29:00;;;;;;;14.00;4.47;;;;;;;;;;7387015;19;20006;-77
2023/01/26 11:31:35;;;;;;;11.23;5.20;;;;;;;;;;7388891;19;20002;-77
2023/01/26 11:34:19;;;;;;;14.10;5.80;;;;;;;;;;7389902;19;20524;-77
2023/01/26 11:37:12;;;;;;;14.88;6.22;;;;;;;;;;7391679;19;19999;-77
2023/01/26 11:40:12;;;;;;;12.50;5.25;;;;;;;;;;7389641;19;20349;-77
2023/01/26 11:42:53;;;;;;;13.43;5.25;;;;;;;;;;7388605;19;20052;-76
2023/01/26 11:45:31;;;;;;;16.13;5.55;;;;;;;;;;7393198;19;20018;-78
2023/01/26 11:48:26;;;;;;;12.10;6.13;;;;;;;;;;7389079;19;20637;-76
2023/01/26 11:51:00;;;;;;;13.40;5.97;;;;;;;;;;7392009;19;20003;-75
2023/01/26 11:53:41;;;;;;;10.43;4.43;;;;;;;;;;7388685;19;20489;-76
2023/01/26 11:56:06;;;;;;;11.93;5.40;;;;;;;;;;7390345;19;20096;-78
2023/01/26 11:58:47;;;;;;;12.95;4.90;;;;;;;;;;7389571;19;20524;-77
2023/01/26 12:01:15;;;;;;;8.07;3.75;;;;;;;;;;7390524;19;20035;-77
2023/01/26 12:03:46;;;;;;;10.48;5.18;;;;;;;;;;7389035;19;20002;-77
2023/01/26 12:06:24;;;;;;;9.48;4.90;;;;;;;;;;7390668;19;19994;-77
2023/01/26 12:09:01;;;;;;;8.15;4.03;;;;;;;;;;7389345;19;20006;-77
2023/01/26 12:11:37;;;;;;;10.02;4.72;;;;;;;;;;7389979;19;20706;-77
2023/01/26 12:14:15;;;;;;;13.63;4.57;;;;;;;;;;7388849;19;19998;-77
2023/01/26 12:17:18;;;;;;;4.47;2.63;;;;;;;;;;7390449;19;20014;-77
2023/01/26 12:19:56;;;;;;;9.88;5.28;;;;;;;;;;7387796;19;20031;-76
2023/01/26 12:22:37;;;;;;;11.50;4.88;;;;;;;;;;7387632;19;20009;-77
2023/01/26 12:25:13;;;;;;;;;;;;;;;;;;7390672;19;20561;-77
2023/01/26 12:27:46;;;;;;;8.55;4.25;;;;;;;;;;7388053;19;19925;-75
2023/01/26 12:30:23;;;;;;;13.38;5.13;;;;;;;;;;7389607;19;20093;-75
2023/01/26 12:32:50;;;;;;;11.13;4.95;;;;;;;;;;7392757;19;20007;-76
2023/01/26 12:35:31;;;;;;;14.32;4.95;;;;;;;;;;7399789;19;20017;-77
2023/01/26 12:38:17;;;;;;;11.65;4.05;;;;;;;;;;7395998;19;20083;-78
2023/01/26 12:41:01;;;;;;;6.57;3.22;;;;;;;;;;7398199;19;20014;-79
2023/01/26 12:43:46;;;;;;;14.07;5.07;;;;;;;;;;7394863;19;19999;-76
2023/01/26 12:46:13;;;;;;;8.85;4.43;;;;;;;;;;7396697;19;20006;-77
2023/01/26 12:48:55;;;;;;;10.65;5.07;;;;;;;;;;7396015;19;20390;-77
2023/01/26 12:51:29;;;;;;;11.95;4.20;;;;;;;;;;7398222;19;20002;-78
2023/01/26 12:54:03;;;;;;;9.93;4.45;;;;;;;;;;7395349;19;20452;-78
2023/01/26 12:56:55;;;;;;;10.68;3.78;;;;;;;;;;7393993;19;20006;-77
2023/01/26 12:59:29;;;;;;;5.50;3.28;;;;;;;;;;7392330;19;20039;-79
2023/01/26 13:01:55;;;;;;;7.35;3.17;;;;;;;;;;7392586;19;19999;-77
2023/01/26 13:04:21;;;;;;;10.07;4.45;;;;;;;;;;7395753;19;20032;-77
2023/01/26 13:07:02;;;;;;;10.63;5.25;;;;;;;;;;7397328;19;20002;-76
2023/01/26 13:09:27;;;;;;;9.07;4.85;;;;;;;;;;7395337;19;20353;-79
2023/01/26 13:11:58;;;;;;;11.85;5.18;;;;;;;;;;7396511;19;20054;-77
2023/01/26 13:14:37;;;;;;;15.55;5.25;;;;;;;;;;7395976;19;20006;-77
2023/01/26 13:17:15;;;;;;;8.60;4.55;;;;;;;;;;7397237;19;20540;-78
2023/01/26 13:19:43;;;;;;;5.20;3.20;;;;;;;;;;7394315;19;20002;-77
2023/01/26 13:22:17;;;;;;;6.53;3.65;;;;;;;;;;7393858;19;20460;-77
2023/01/26 13:24:47;;;;;;;9.65;4.57;;;;;;;;;;7395820;19;20011;-77
2023/01/26 13:27:29;;;;;;;12.70;5.70;;;;;;;;;;7396701;19;20002;-77
2023/01/26 13:29:55;;;;;;;12.30;5.32;;;;;;;;;;7394522;19;20006;-78
2023/01/26 13:32:20;;;;;;;7.30;3.72;;;;;;;;;;7395042;19;20003;-77
2023/01/26 13:34:53;;;;;;;10.13;4.35;;;;;;;;;;7394301;19;19998;-77
2023/01/26 13:37:47;;;;;;;12.23;4.75;;;;;;;;;;7396999;19;20005;-77
2023/01/26 13:40:24;;;;;;;13.75;4.65;;;;;;;;;;7393156;19;20006;-77
2023/01/26 13:43:03;;;;;;;6.50;3.05;;;;;;;;;;7393092;19;20010;-76
2023/01/26 13:45:42;;;;;;;7.05;3.13;;;;;;;;;;7390909;19;20018;-76
2023/01/26 13:48:17;;;;;;;7.97;4.57;;;;;;;;;;7389314;19;20015;-77
2023/01/26 13:50:47;;;;;;;14.35;5.13;;;;;;;;;;7395187;19;20015;-78
2023/01/26 13:53:31;;;;;;;14.82;5.30;;;;;;;;;;7396238;19;20012;-78
2023/01/26 13:55:59;;;;;;;7.57;4.07;;;;;;;;;;7393723;19;20813;-78
2023/01/26 13:58:26;;;;;;;12.18;4.95;;;;;;;;;;7393749;19;20268;-78
2023/01/26 14:01:01;;;;;;;14.18;5.22;;;;;;;;;;7395745;19;19995;-78
2023/01/26 14:03:29;;;;;;;10.07;4.68;;;;;;;;;;7392627;19;20015;-76
2023/01/26 14:05:59;;;;;;;10.68;5.35;;;;;;;;;;7394238;19;20002;-77
2023/01/26 14:08:24;;;;;;;10.48;5.15;;;;;;;;;;7391981;19;20009;-77
2023/01/26 14:10:51;;;;;;;11.05;5.20;;;;;;;;;;7394230;19;20003;-77
2023/01/26 14:13:22;;;;;;;6.63;2.92;;;;;;;;;;7395554;19;20015;-75
2023/01/26 14:15:55;;;;;;;10.45;4.15;;;;;;;;;;7392525;19;20489;-77
2023/01/26 14:18:23;;;;;;;14.80;5.70;;;;;;;;;;7393526;19;20706;-76
2023/01/26 14:20:56;;;;;;;11.63;5.55;;;;;;;;;;7395438;19;19999;-76
2023/01/26 14:23:21;;;;;;;11.82;5.35;;;;;;;;;;7390943;19;20359;-77
2023/01/26 14:25:55;;;;;;;16.48;5.10;;;;;;;;;;7393921;19;19994;-77
2023/01/26 14:28:24;;;;;;;11.80;4.82;;;;;;;;;;7391956;19;19999;-76
2023/01/26 14:30:54;;;;;;;9.00;4.63;;;;;;;;;;7394370;19;20053;-77
2023/01/26 14:33:21;;;;;;;11.88;5.05;;;;;;;;;;7394299;19;20451;-78
2023/01/26 14:35:59;;;;;;;12.02;4.90;;;;;;;;;;7391381;19;20389;-77
2023/01/26 14:38:27;;;;;;;17.00;5.43;;;;;;;;;;7392102;19;19991;-77
2023/01/26 14:40:55;;;;;;;15.38;5.63;;;;;;;;;;7393811;19;19999;-77
2023/01/26 14:43:21;;;;;;;9.70;4.57;;;;;;;;;;7392521;19;19987;-77
2023/01/26 14:46:08;;;;;;;12.50;5.35;;;;;;;;;;7391413;19;19999;-77
2023/01/26 14:48:41;;;;;;;10.80;5.50;;;;;;;;;;7392059;19;20010;-77
2023/01/26 14:51:20;;;;;;;11.93;5.15;;;;;;;;;;7391653;19;20027;-77
2023/01/26 14:53:51;;;;;;;15.75;5.80;;;;;;;;;;7392045;19;20019;-78
2023/01/26 14:56:18;;;;;;;14.32;6.13;;;;;;;;;;7391125;19;20028;-77
2023/01/26 14:58:44;;;;;;;11.38;5.82;;;;;;;;;;7392585;19;20025;-78
2023/01/26 15:01:22;;;;;;;13.82;6.15;;;;;;;;;;7389191;19;20070;-77
2023/01/26 15:03:54;;;;;;;14.95;6.50;;;;;;;;;;7390867;19;20128;-77
2023/01/26 15:06:22;;;;;;;12.07;5.85;;;;;;;;;;7394054;19;20382;-78
2023/01/26 15:09:24;;;;;;;12.48;5.70;;;;;;;;;;7389818;19;20002;-76
2023/01/26 15:14:44;;;;;;;11.27;5.60;;;;;;;;;;7393239;19;20109;-76
2023/01/26 15:17:26;;;;;;;15.85;6.63;;;;;;;;;;7392582;19;20014;-76
2023/01/26 15:19:51;;;;;;;16.20;7.10;;;;;;;;;;7394904;19;20006;-76
2023/01/26 15:22:22;;;;;;;14.60;6.00;;;;;;;;;;7396373;19;19991;-76
2023/01/26 15:25:03;;;;;;;13.48;5.63;;;;;;;;;;7397425;19;19998;-77
2023/01/26 15:27:31;;;;;;;11.43;5.60;;;;;;;;;;7396633;19;20034;-76
2023/01/26 15:29:58;;;;;;;15.52;5.82;;;;;;;;;;7394295;19;20006;-76
2023/01/26 15:32:36;;;;;;;13.05;5.88;;;;;;;;;;7392300;19;20070;-76
2023/01/26 15:35:04;;;;;;;14.05;5.82;;;;;;;;;;7391484;19;19995;-77
2023/01/26 15:37:32;;;;;;;14.82;5.78;;;;;;;;;;7392814;19;19999;-77
2023/01/26 15:39:58;;;;;;;12.38;5.32;;;;;;;;;;7390752;19;19998;-78